createdAt,value
2023-01-20T00:01:29.906Z,64.73
2023-01-20T00:03:57.811Z,81.87
2023-01-20T00:06:27.797Z,74.10
2023-01-20T00:08:56.609Z,74.83
2023-01-20T00:11:24.475Z,76.70
2023-01-20T00:13:55.915Z,77.50
2023-01-20T00:16:23.821Z,85.13
2023-01-20T00:18:51.420Z,79.37
2023-01-20T00:21:19.022Z,64.63
2023-01-20T00:23:47.314Z,80.93
2023-01-20T00:26:16.815Z,78.77
2023-01-20T00:28:44.852Z,84.40
2023-01-20T00:31:17.005Z,69.30
2023-01-20T00:33:44.814Z,80.70
2023-01-20T00:36:13.023Z,75.57
2023-01-20T00:38:40.522Z,84.43
2023-01-20T00:41:07.999Z,70.37
2023-01-20T00:43:35.738Z,72.03
2023-01-20T00:46:03.425Z,81.87
2023-01-20T00:48:30.902Z,78.20
2023-01-20T00:50:58.521Z,67.80
2023-01-20T00:53:25.941Z,53.40
2023-01-20T00:55:53.405Z,76.23
2023-01-20T00:58:20.978Z,72.53
2023-01-20T01:00:49.043Z,67.63
2023-01-20T01:03:16.846Z,62.27
2023-01-20T01:05:44.617Z,65.17
2023-01-20T01:08:12.320Z,69.67
2023-01-20T01:10:40.687Z,64.37
2023-01-20T01:13:08.536Z,54.73
2023-01-20T01:15:36.002Z,67.60
2023-01-20T01:18:03.865Z,63.00
2023-01-20T01:20:31.482Z,67.10
2023-01-20T01:22:58.892Z,64.70
2023-01-20T01:28:26.493Z,64.03
2023-01-20T01:30:53.882Z,66.70
2023-01-20T01:33:21.352Z,71.63
2023-01-20T01:35:58.477Z,68.57
2023-01-20T01:38:26.201Z,68.30
2023-01-20T01:40:54.145Z,74.50
2023-01-20T01:43:25.464Z,71.40
2023-01-20T01:45:53.276Z,64.47
2023-01-20T01:48:33.800Z,66.80
2023-01-20T01:51:08.371Z,78.40
2023-01-20T01:53:40.011Z,75.03
2023-01-20T01:56:07.667Z,69.63
2023-01-20T01:58:36.962Z,67.13
2023-01-20T02:01:04.656Z,75.47
2023-01-20T02:03:36.734Z,74.20
2023-01-20T02:06:04.828Z,75.03
2023-01-20T02:08:32.257Z,72.23
2023-01-20T02:10:59.595Z,64.43
2023-01-20T02:13:27.002Z,69.30
2023-01-20T02:16:04.251Z,74.53
2023-01-20T02:18:38.099Z,63.07
2023-01-20T02:21:15.449Z,64.97
2023-01-20T02:24:01.343Z,64.10
2023-01-20T02:26:41.662Z,72.27
2023-01-20T02:29:24.270Z,65.97
2023-01-20T02:32:10.546Z,63.53
2023-01-20T02:34:37.898Z,61.57
2023-01-20T02:37:16.047Z,63.37
2023-01-20T02:40:12.617Z,69.10
2023-01-20T02:42:45.467Z,65.47
2023-01-20T02:45:23.346Z,50.60
2023-01-20T02:47:56.966Z,58.97
2023-01-20T02:50:26.837Z,64.23
2023-01-20T02:52:55.433Z,58.07
2023-01-20T02:55:26.833Z,57.17
2023-01-20T02:58:00.147Z,63.13
2023-01-20T03:00:33.964Z,55.67
2023-01-20T03:03:03.330Z,62.50
2023-01-20T03:08:01.998Z,57.53
2023-01-20T03:10:30.477Z,57.70
2023-01-20T03:12:59.606Z,65.07
2023-01-20T03:15:33.283Z,70.03
2023-01-20T03:18:00.614Z,62.47
2023-01-20T03:20:27.989Z,64.17
2023-01-20T03:22:55.330Z,63.30
2023-01-20T03:25:22.913Z,61.53
2023-01-20T03:27:50.218Z,67.23
2023-01-20T03:30:17.938Z,66.33
2023-01-20T03:32:47.132Z,69.97
2023-01-20T03:35:16.650Z,72.63
2023-01-20T03:37:44.832Z,69.90
2023-01-20T03:40:13.001Z,74.23
2023-01-20T03:42:56.076Z,73.20
2023-01-20T03:45:33.368Z,77.23
2023-01-20T03:48:20.935Z,82.17
2023-01-20T03:50:54.106Z,77.00
2023-01-20T03:53:45.906Z,89.17
2023-01-20T03:56:25.613Z,93.53
2023-01-20T03:58:54.223Z,78.47
2023-01-20T04:01:23.349Z,85.70
2023-01-20T04:03:53.534Z,92.67
2023-01-20T04:06:22.499Z,90.33
2023-01-20T04:08:55.696Z,86.97
2023-01-20T04:11:24.090Z,85.77
2023-01-20T04:13:51.765Z,90.00
2023-01-20T04:16:19.936Z,92.33
2023-01-20T04:18:49.014Z,98.57
2023-01-20T04:21:29.878Z,96.40
2023-01-20T04:23:57.209Z,83.43
2023-01-20T04:26:24.561Z,92.57
2023-01-20T04:28:51.882Z,97.00
2023-01-20T04:31:30.133Z,91.80
2023-01-20T04:33:57.759Z,92.13
2023-01-20T04:36:25.210Z,103.70
2023-01-20T04:38:52.621Z,87.87
2023-01-20T04:41:19.970Z,99.20
2023-01-20T04:43:47.536Z,88.30
2023-01-20T04:46:15.525Z,96.23
2023-01-20T04:48:44.759Z,102.83
2023-01-20T04:51:12.173Z,102.87
2023-01-20T04:53:39.539Z,104.13
2023-01-20T04:56:11.868Z,100.90
2023-01-20T04:58:39.614Z,102.87
2023-01-20T05:01:07.008Z,94.47
2023-01-20T05:03:34.526Z,129.02
2023-01-20T05:06:02.163Z,111.37
2023-01-20T05:08:29.565Z,114.67
2023-01-20T05:10:56.881Z,113.47
2023-01-20T05:13:24.404Z,88.73
2023-01-20T05:15:52.086Z,105.60
2023-01-20T05:18:19.493Z,100.17
2023-01-20T05:20:47.486Z,98.93
2023-01-20T05:23:15.197Z,115.63
2023-01-20T05:25:42.693Z,110.77
2023-01-20T05:28:10.109Z,93.07
2023-01-20T05:30:37.499Z,107.30
2023-01-20T05:33:04.925Z,85.57
2023-01-20T05:35:32.253Z,107.80
2023-01-20T05:37:59.805Z,91.33
2023-01-20T05:40:27.142Z,95.57
2023-01-20T05:42:54.653Z,144.82
2023-01-20T05:45:22.152Z,108.13
2023-01-20T05:47:54.726Z,109.97
2023-01-20T05:50:22.089Z,107.93
2023-01-20T05:52:49.589Z,107.23
2023-01-20T05:55:17.242Z,114.03
2023-01-20T05:57:44.563Z,112.90
2023-01-20T06:00:12.636Z,115.47
2023-01-20T06:02:40.098Z,121.20
2023-01-20T06:05:07.694Z,108.50
2023-01-20T06:07:35.172Z,124.10
2023-01-20T06:10:02.629Z,108.93
2023-01-20T06:12:30.145Z,117.70
2023-01-20T06:14:57.512Z,126.40
2023-01-20T06:17:24.875Z,118.93
2023-01-20T06:19:52.193Z,114.90
2023-01-20T06:22:21.067Z,107.03
2023-01-20T06:24:48.430Z,99.77
2023-01-20T06:27:15.759Z,104.97
2023-01-20T06:29:43.127Z,104.43
2023-01-20T06:32:10.497Z,94.53
2023-01-20T06:34:37.882Z,108.63
2023-01-20T06:37:05.286Z,101.20
2023-01-20T06:39:32.597Z,97.43
2023-01-20T06:42:00.666Z,91.07
2023-01-20T06:44:28.020Z,94.97
2023-01-20T06:46:57.357Z,103.20
2023-01-20T06:49:24.806Z,87.03
2023-01-20T06:51:52.525Z,87.70
2023-01-20T06:54:19.907Z,81.90
2023-01-20T06:56:47.268Z,84.17
2023-01-20T06:59:14.583Z,75.70
2023-01-20T07:01:42.045Z,79.00
2023-01-20T07:04:11.110Z,95.73
2023-01-20T07:06:39.834Z,77.83
2023-01-20T07:09:08.420Z,78.57
2023-01-20T07:11:35.970Z,87.60
2023-01-20T07:14:03.960Z,82.90
2023-01-20T07:16:31.802Z,86.53
2023-01-20T07:18:59.238Z,76.77
2023-01-20T07:21:26.847Z,79.00
2023-01-20T07:23:54.235Z,83.47
2023-01-20T07:26:22.669Z,80.80
2023-01-20T07:28:50.170Z,86.37
2023-01-20T07:31:18.848Z,83.77
2023-01-20T07:33:46.496Z,82.90
2023-01-20T07:36:14.796Z,91.90
2023-01-20T07:38:42.640Z,79.83
2023-01-20T07:41:15.876Z,85.10
2023-01-20T07:43:43.913Z,77.87
2023-01-20T07:46:11.733Z,83.40
2023-01-20T07:48:40.489Z,85.67
2023-01-20T07:51:08.993Z,82.77
2023-01-20T07:53:38.589Z,89.77
2023-01-20T07:56:06.111Z,87.57
2023-01-20T07:58:33.533Z,84.03
2023-01-20T08:01:11.349Z,80.53
2023-01-20T08:03:38.809Z,91.97
2023-01-20T08:06:06.871Z,86.57
2023-01-20T08:08:34.493Z,89.53
2023-01-20T08:11:02.196Z,85.03
2023-01-20T08:13:30.541Z,81.43
2023-01-20T08:16:00.754Z,101.57
2023-01-20T08:18:28.374Z,72.03
2023-01-20T08:20:55.733Z,83.80
2023-01-20T08:23:23.304Z,79.93
2023-01-20T08:25:52.000Z,94.67
2023-01-20T08:28:19.420Z,89.27
2023-01-20T08:30:46.824Z,78.53
2023-01-20T08:33:14.260Z,94.40
2023-01-20T08:35:41.577Z,93.07
2023-01-20T08:38:09.391Z,87.10
2023-01-20T08:40:36.817Z,87.90
2023-01-20T08:43:04.245Z,81.53
2023-01-20T08:45:31.851Z,80.83
2023-01-20T08:47:59.351Z,82.53
2023-01-20T08:50:26.739Z,80.33
2023-01-20T08:52:54.250Z,79.27
2023-01-20T08:55:21.609Z,78.73
2023-01-20T08:57:48.995Z,73.83
2023-01-20T09:00:16.976Z,83.53
2023-01-20T09:02:44.461Z,85.97
2023-01-20T09:05:11.967Z,72.53
2023-01-20T09:07:39.317Z,82.73
2023-01-20T09:10:07.447Z,71.90
2023-01-20T09:12:34.842Z,78.27
2023-01-20T09:15:04.818Z,77.83
2023-01-20T09:17:32.927Z,72.87
2023-01-20T09:20:00.229Z,79.63
2023-01-20T09:22:27.586Z,80.23
2023-01-20T09:24:55.015Z,67.70
2023-01-20T09:27:23.459Z,79.93
2023-01-20T09:29:50.858Z,70.50
2023-01-20T09:32:18.204Z,71.13
2023-01-20T09:34:45.843Z,82.33
2023-01-20T09:37:31.680Z,82.67
2023-01-20T09:40:17.758Z,74.57
2023-01-20T09:43:09.872Z,81.67
2023-01-20T09:45:39.284Z,79.43
2023-01-20T09:48:34.348Z,67.40
2023-01-20T09:51:23.164Z,74.43
2023-01-20T09:54:02.778Z,81.50
2023-01-20T09:56:31.880Z,76.30
2023-01-20T09:59:11.307Z,82.00
2023-01-20T10:01:42.015Z,79.17
2023-01-20T10:04:30.080Z,79.83
2023-01-20T10:07:17.467Z,74.93
2023-01-20T10:09:57.455Z,65.63
2023-01-20T10:12:30.878Z,80.70
2023-01-20T10:14:58.188Z,71.87
2023-01-20T10:17:34.656Z,76.97
2023-01-20T10:20:03.992Z,68.50
2023-01-20T10:22:38.389Z,67.33
2023-01-20T10:25:28.176Z,67.80
2023-01-20T10:28:02.799Z,68.57
2023-01-20T10:30:35.357Z,68.47
2023-01-20T10:33:09.211Z,63.30
2023-01-20T10:35:38.127Z,57.13
2023-01-20T10:38:08.627Z,63.47
2023-01-20T10:40:45.389Z,58.57
2023-01-20T10:43:14.059Z,58.70
2023-01-20T10:45:47.232Z,62.03
2023-01-20T10:48:14.554Z,58.60
2023-01-20T10:50:43.638Z,60.20
2023-01-20T10:53:17.056Z,61.10
2023-01-20T10:56:08.795Z,52.83
2023-01-20T10:58:38.518Z,56.37
2023-01-20T11:01:09.273Z,60.07
2023-01-20T11:03:38.132Z,52.63
2023-01-20T11:06:07.020Z,50.33
2023-01-20T11:08:34.964Z,54.00
2023-01-20T11:11:12.566Z,46.63
2023-01-20T11:13:40.035Z,45.40
2023-01-20T11:16:16.891Z,51.43
2023-01-20T11:18:57.385Z,50.37
2023-01-20T11:21:25.705Z,46.77
2023-01-20T11:23:55.766Z,44.53
2023-01-20T11:26:27.886Z,47.97
2023-01-20T11:29:01.075Z,49.13
2023-01-20T11:31:54.644Z,43.87
2023-01-20T11:34:27.847Z,43.63
2023-01-20T11:37:07.557Z,46.67
2023-01-20T11:39:36.650Z,44.77
2023-01-20T11:42:23.958Z,46.50
2023-01-20T11:45:01.103Z,46.40
2023-01-20T11:47:34.530Z,43.67
2023-01-20T11:50:04.945Z,43.40
2023-01-20T11:52:33.317Z,36.73
2023-01-20T11:55:13.014Z,33.07
2023-01-20T11:57:44.645Z,30.07
2023-01-20T12:00:27.386Z,33.33
2023-01-20T12:03:18.219Z,28.37
2023-01-20T12:05:57.912Z,34.23
2023-01-20T12:08:34.562Z,29.77
2023-01-20T12:11:05.573Z,32.40
2023-01-20T12:14:03.937Z,28.27
2023-01-20T12:16:32.812Z,33.67
2023-01-20T12:19:04.332Z,32.20
2023-01-20T12:21:41.951Z,29.93
2023-01-20T12:24:42.081Z,31.80
2023-01-20T12:27:16.801Z,31.87
2023-01-20T12:29:46.061Z,28.27
2023-01-20T12:32:13.379Z,31.70
2023-01-20T12:34:40.906Z,29.57
2023-01-20T12:37:13.410Z,34.70
2023-01-20T12:39:57.232Z,30.47
2023-01-20T12:42:33.936Z,28.03
2023-01-20T12:45:39.681Z,30.60
2023-01-20T12:48:15.701Z,30.47
2023-01-20T12:50:52.857Z,32.73
2023-01-20T12:53:40.463Z,28.17
2023-01-20T12:56:26.502Z,31.33
2023-01-20T12:59:17.034Z,28.93
2023-01-20T13:02:06.283Z,30.93
2023-01-20T13:04:52.205Z,23.63
2023-01-20T13:07:23.085Z,26.90
2023-01-20T13:09:59.709Z,24.80
2023-01-20T13:12:47.509Z,24.23
2023-01-20T13:15:27.655Z,29.03
2023-01-20T13:17:55.087Z,29.07
2023-01-20T13:20:24.355Z,28.87
2023-01-20T13:22:52.177Z,25.10
2023-01-20T13:25:20.659Z,25.43
2023-01-20T13:27:51.307Z,28.37
2023-01-20T13:30:37.719Z,29.07
2023-01-20T13:33:08.704Z,29.93
2023-01-20T13:35:49.810Z,33.70
2023-01-20T13:38:21.633Z,26.27
2023-01-20T13:40:51.067Z,27.97
2023-01-20T13:43:27.468Z,24.70
2023-01-20T13:46:03.785Z,27.87
2023-01-20T13:48:32.245Z,25.00
2023-01-20T13:51:18.681Z,22.93
2023-01-20T13:53:46.443Z,24.20
2023-01-20T13:56:25.170Z,24.67
2023-01-20T13:58:52.634Z,28.27
2023-01-20T14:01:20.042Z,20.60
2023-01-20T14:04:02.763Z,27.93
2023-01-20T14:06:30.450Z,29.93
2023-01-20T14:08:57.830Z,21.20
2023-01-20T14:11:26.161Z,23.00
2023-01-20T14:13:54.972Z,24.27
2023-01-20T14:16:37.789Z,22.47
2023-01-20T14:19:19.580Z,26.23
2023-01-20T14:21:50.941Z,18.67
2023-01-20T14:24:34.873Z,21.57
2023-01-20T14:27:17.533Z,20.30
2023-01-20T14:29:45.596Z,17.13
2023-01-20T14:32:29.879Z,15.33
2023-01-20T14:34:57.601Z,17.93
2023-01-20T14:37:25.029Z,20.03
2023-01-20T14:39:52.714Z,22.63
2023-01-20T14:42:21.362Z,18.97
2023-01-20T14:44:49.458Z,18.30
2023-01-20T14:47:17.015Z,23.63
2023-01-20T14:49:45.671Z,22.03
2023-01-20T14:52:15.022Z,31.17
2023-01-20T14:54:44.448Z,29.30
2023-01-20T14:57:20.624Z,29.67
2023-01-20T14:59:49.122Z,26.17
2023-01-20T15:02:19.813Z,27.50
2023-01-20T15:04:47.304Z,32.03
2023-01-20T15:07:21.405Z,23.90
2023-01-20T15:09:57.023Z,23.20
2023-01-20T15:12:35.509Z,30.73
2023-01-20T15:15:18.360Z,35.43
2023-01-20T15:18:04.941Z,31.10
2023-01-20T15:20:33.438Z,31.80
2023-01-20T15:23:01.165Z,31.30
2023-01-20T15:25:29.340Z,45.57
2023-01-20T15:27:57.803Z,32.47
2023-01-20T15:30:27.878Z,36.53
2023-01-20T15:32:57.354Z,40.23
2023-01-20T15:35:26.268Z,36.07
2023-01-20T15:37:55.478Z,40.83
2023-01-20T15:40:24.491Z,41.93
2023-01-20T15:42:53.316Z,35.27
2023-01-20T15:45:20.704Z,35.77
2023-01-20T15:47:49.066Z,34.60
2023-01-20T15:50:18.182Z,32.13
2023-01-20T15:52:45.776Z,33.03
2023-01-20T15:55:14.379Z,35.10
2023-01-20T15:57:41.993Z,35.67
2023-01-20T16:00:16.290Z,42.37
2023-01-20T16:02:44.123Z,36.87
2023-01-20T16:05:14.562Z,36.80
2023-01-20T16:07:44.663Z,38.97
2023-01-20T16:10:19.401Z,40.87
2023-01-20T16:12:47.406Z,39.03
2023-01-20T16:15:18.776Z,33.43
2023-01-20T16:17:46.525Z,35.23
2023-01-20T16:20:21.510Z,55.10
2023-01-20T16:22:48.953Z,38.73
2023-01-20T16:25:16.747Z,42.00
2023-01-20T16:27:44.095Z,43.13
2023-01-20T16:30:18.823Z,34.10
2023-01-20T16:32:46.691Z,39.27
2023-01-20T16:35:14.969Z,47.97
2023-01-20T16:37:42.612Z,44.57
2023-01-20T16:40:20.919Z,42.87
2023-01-20T16:42:48.441Z,35.30
2023-01-20T16:45:22.035Z,37.27
2023-01-20T16:47:49.660Z,40.17
2023-01-20T16:50:17.861Z,41.30
2023-01-20T16:52:45.351Z,39.87
2023-01-20T16:55:13.691Z,46.80
2023-01-20T16:57:41.217Z,41.20
2023-01-20T17:00:09.305Z,41.60
2023-01-20T17:02:38.991Z,43.90
2023-01-20T17:05:09.603Z,38.57
2023-01-20T17:07:37.036Z,51.47
2023-01-20T17:10:04.512Z,36.20
2023-01-20T17:12:31.842Z,49.07
2023-01-20T17:14:59.249Z,48.87
2023-01-20T17:17:26.636Z,43.87
2023-01-20T17:19:53.982Z,47.97
2023-01-20T17:22:21.354Z,37.70
2023-01-20T17:24:49.432Z,44.13
2023-01-20T17:27:17.204Z,44.90
2023-01-20T17:29:44.818Z,42.47
2023-01-20T17:32:12.250Z,41.03
2023-01-20T17:34:39.722Z,48.87
2023-01-20T17:37:07.110Z,37.70
2023-01-20T17:39:34.484Z,45.50
2023-01-20T17:42:01.840Z,46.70
2023-01-20T17:44:29.364Z,35.43
2023-01-20T17:46:59.338Z,47.17
2023-01-20T17:49:26.788Z,38.43
2023-01-20T17:51:54.132Z,47.63
2023-01-20T17:54:21.470Z,66.20
2023-01-20T17:56:48.824Z,44.97
2023-01-20T17:59:16.821Z,47.73
2023-01-20T18:01:44.371Z,41.57
2023-01-20T18:04:11.713Z,48.93
2023-01-20T18:06:39.101Z,46.40
2023-01-20T18:09:07.695Z,45.83
2023-01-20T18:11:36.090Z,46.60
2023-01-20T18:14:04.747Z,44.73
2023-01-20T18:16:33.305Z,41.37
2023-01-20T18:19:00.849Z,47.63
2023-01-20T18:21:35.410Z,45.27
2023-01-20T18:24:03.506Z,52.40
2023-01-20T18:26:32.451Z,44.10
2023-01-20T18:29:01.092Z,55.50
2023-01-20T18:31:30.391Z,52.90
2023-01-20T18:34:01.838Z,71.33
2023-01-20T18:36:39.523Z,63.40
2023-01-20T18:39:08.303Z,59.70
2023-01-20T18:41:37.843Z,54.93
2023-01-20T18:44:07.182Z,54.20
2023-01-20T18:46:34.930Z,55.97
2023-01-20T18:49:02.806Z,52.73
2023-01-20T18:51:30.687Z,59.73
2023-01-20T18:54:04.490Z,62.20
2023-01-20T18:56:33.332Z,58.07
2023-01-20T18:59:00.867Z,53.27
2023-01-20T19:01:29.820Z,66.70
2023-01-20T19:03:57.684Z,54.50
2023-01-20T19:06:26.324Z,57.37
2023-01-20T19:08:53.715Z,64.73
2023-01-20T19:11:23.164Z,54.93
2023-01-20T19:13:51.304Z,64.17
2023-01-20T19:16:19.367Z,70.37
2023-01-20T19:18:50.678Z,60.63
2023-01-20T19:21:18.114Z,56.67
2023-01-20T19:23:49.017Z,56.83
2023-01-20T19:26:18.690Z,54.10
2023-01-20T19:28:46.786Z,58.70
2023-01-20T19:31:16.651Z,62.00
2023-01-20T19:33:44.547Z,68.40
2023-01-20T19:36:13.175Z,57.43
2023-01-20T19:38:40.600Z,68.90
2023-01-20T19:41:07.953Z,63.27
2023-01-20T19:43:35.517Z,60.57
2023-01-20T19:46:06.555Z,77.53
2023-01-20T19:48:34.109Z,75.33
2023-01-20T19:51:12.266Z,67.87
2023-01-20T19:53:39.935Z,69.73
2023-01-20T19:56:07.475Z,71.93
2023-01-20T19:58:38.354Z,70.87
2023-01-20T20:01:10.420Z,64.40
2023-01-20T20:03:38.133Z,64.80
2023-01-20T20:06:07.074Z,71.67
2023-01-20T20:08:36.280Z,67.50
2023-01-20T20:11:04.109Z,72.50
2023-01-20T20:13:31.463Z,62.43
2023-01-20T20:16:02.575Z,73.17
2023-01-20T20:18:29.989Z,71.80
2023-01-20T20:20:57.813Z,68.17
2023-01-20T20:23:25.410Z,65.73
2023-01-20T20:25:56.220Z,104.45
2023-01-20T20:28:24.317Z,78.93
2023-01-20T20:30:52.290Z,80.67
2023-01-20T20:33:19.804Z,63.37
2023-01-20T20:35:47.423Z,80.80
2023-01-20T20:38:14.784Z,84.73
2023-01-20T20:40:42.508Z,87.50
2023-01-20T20:43:09.976Z,104.87
2023-01-20T20:45:37.364Z,88.43
2023-01-20T20:48:05.001Z,78.43
2023-01-20T20:50:32.438Z,86.40
2023-01-20T20:53:00.491Z,88.37
2023-01-20T20:55:29.457Z,87.10
2023-01-20T20:57:57.044Z,83.10
2023-01-20T21:00:28.284Z,69.90
2023-01-20T21:02:56.893Z,73.23
2023-01-20T21:05:24.616Z,81.43
2023-01-20T21:07:53.374Z,79.17
2023-01-20T21:10:21.443Z,81.37
2023-01-20T21:12:49.032Z,84.00
2023-01-20T21:15:17.959Z,83.53
2023-01-20T21:17:45.874Z,84.90
2023-01-20T21:20:13.817Z,92.70
2023-01-20T21:22:41.464Z,87.37
2023-01-20T21:25:10.111Z,84.77
2023-01-20T21:27:38.186Z,84.23
2023-01-20T21:30:06.021Z,90.43
2023-01-20T21:32:33.818Z,102.20
2023-01-20T21:35:01.901Z,85.13
2023-01-20T21:37:29.385Z,99.50
2023-01-20T21:39:56.860Z,86.93
2023-01-20T21:42:24.418Z,87.23
2023-01-20T21:44:51.846Z,81.63
2023-01-20T21:47:19.461Z,83.53
2023-01-20T21:50:05.459Z,89.53
2023-01-20T21:52:42.339Z,71.37
2023-01-20T21:55:11.333Z,79.57
2023-01-20T21:57:39.378Z,78.77
2023-01-20T22:00:12.567Z,79.47
2023-01-20T22:02:46.139Z,86.47
2023-01-20T22:05:14.074Z,85.30
2023-01-20T22:07:42.104Z,89.50
2023-01-20T22:10:10.107Z,74.87
2023-01-20T22:12:37.763Z,79.00
2023-01-20T22:15:05.423Z,78.93
2023-01-20T22:17:33.035Z,76.53
2023-01-20T22:20:00.640Z,64.83
2023-01-20T22:22:28.182Z,63.57
2023-01-20T22:24:55.713Z,71.63
2023-01-20T22:27:23.411Z,70.37
2023-01-20T22:29:51.056Z,75.03
2023-01-20T22:32:18.489Z,85.03
2023-01-20T22:34:46.056Z,81.57
2023-01-20T22:37:13.719Z,73.40
2023-01-20T22:39:41.137Z,79.17
2023-01-20T22:42:08.800Z,73.87
2023-01-20T22:44:36.321Z,64.70
2023-01-20T22:47:05.831Z,80.97
2023-01-20T22:49:33.423Z,79.07
2023-01-20T22:52:01.267Z,80.53
2023-01-20T22:54:28.888Z,71.97
2023-01-20T22:56:56.421Z,71.40
2023-01-20T22:59:23.879Z,71.33
2023-01-20T23:01:51.536Z,77.17
2023-01-20T23:04:19.163Z,81.97
2023-01-20T23:06:46.906Z,74.10
2023-01-20T23:09:14.552Z,62.90
2023-01-20T23:11:42.298Z,73.07
2023-01-20T23:14:13.099Z,70.30
2023-01-20T23:16:41.326Z,68.63
2023-01-20T23:19:09.234Z,72.70
2023-01-20T23:21:36.881Z,83.50
2023-01-20T23:24:04.614Z,66.83
2023-01-20T23:26:34.297Z,71.30
2023-01-20T23:29:02.104Z,69.40
2023-01-20T23:31:33.251Z,68.07
2023-01-20T23:34:00.809Z,66.77
2023-01-20T23:36:28.309Z,64.33
2023-01-20T23:38:56.656Z,73.77
2023-01-20T23:41:24.621Z,64.97
2023-01-20T23:43:52.268Z,72.27
2023-01-20T23:46:21.363Z,64.63
2023-01-20T23:48:49.009Z,71.03
2023-01-20T23:51:16.672Z,61.63
2023-01-20T23:53:44.367Z,69.97
2023-01-20T23:56:13.505Z,66.07
2023-01-20T23:58:41.653Z,61.47
